Time;durP1;ratioP1;P1;durP2;ratioP2;P2;SDS_P1;SDS_P2;PMS_P1;PMS_P2;Temp;Humidity;BMP_temperature;BMP_pressure;BME280_temperature;BME280_humidity;BME280_pressure;Samples;Min_cycle;Max_cycle;Signal;HPM_P1;HPM_P2
2023/06/12 00:01:44;;;;;;;9.10;8.25;;;14.30;99.90;;;;;;4995502;28;20038;-57
2023/06/12 00:04:10;;;;;;;9.45;8.65;;;14.30;99.90;;;;;;4998937;28;20038;-58
2023/06/12 00:06:37;;;;;;;10.10;9.02;;;14.20;99.90;;;;;;4994886;28;20022;-58
2023/06/12 00:09:04;;;;;;;9.80;8.88;;;14.00;99.90;;;;;;4995293;28;20031;-58
2023/06/12 00:11:30;;;;;;;9.35;8.55;;;13.90;99.90;;;;;;4998180;28;20386;-56
2023/06/12 00:13:55;;;;;;;10.13;9.23;;;13.70;99.90;;;;;;4997193;28;20037;-57
2023/06/12 00:16:22;;;;;;;10.00;8.68;;;13.70;99.90;;;;;;4995561;28;20026;-58
2023/06/12 00:18:52;;;;;;;9.40;8.48;;;13.70;99.90;;;;;;4994481;28;20030;-56
2023/06/12 00:21:19;;;;;;;9.43;8.45;;;13.70;99.90;;;;;;5002315;28;20072;-57
2023/06/12 00:23:45;;;;;;;10.18;9.27;;;13.80;99.90;;;;;;4996814;28;20019;-57
2023/06/12 00:26:11;;;;;;;9.07;8.25;;;13.80;99.90;;;;;;4995458;28;20101;-57
2023/06/12 00:28:37;;;;;;;9.43;8.73;;;13.90;99.90;;;;;;4996871;28;20045;-57
2023/06/12 00:31:03;;;;;;;9.35;8.55;;;13.90;99.90;;;;;;4995166;28;20092;-57
2023/06/12 00:33:28;;;;;;;9.30;8.60;;;13.90;99.90;;;;;;4992271;28;20045;-57
2023/06/12 00:35:54;;;;;;;8.32;7.63;;;14.00;99.90;;;;;;4995600;28;20075;-58
2023/06/12 00:38:21;;;;;;;9.07;8.27;;;13.90;99.90;;;;;;4997633;28;20088;-57
2023/06/12 00:40:47;;;;;;;9.70;9.00;;;14.00;99.90;;;;;;4996181;28;20399;-57
2023/06/12 00:43:13;;;;;;;9.32;8.50;;;14.00;99.90;;;;;;4998054;28;20019;-57
2023/06/12 00:45:39;;;;;;;9.52;8.07;;;13.90;99.90;;;;;;4993588;28;20018;-57
2023/06/12 00:48:06;;;;;;;9.65;8.77;;;13.90;99.90;;;;;;4998800;28;20027;-56
2023/06/12 00:50:33;;;;;;;9.07;8.27;;;13.90;99.90;;;;;;4998984;28;20104;-56
2023/06/12 00:52:59;;;;;;;9.07;8.35;;;13.90;99.90;;;;;;4997105;28;20121;-57
2023/06/12 00:55:26;;;;;;;9.68;8.73;;;13.80;99.90;;;;;;4975652;28;20056;-60
2023/06/12 00:57:52;;;;;;;9.07;8.43;;;13.60;99.90;;;;;;4994912;28;20615;-59
2023/06/12 01:00:19;;;;;;;9.88;9.05;;;13.50;99.90;;;;;;4998946;28;20042;-60
2023/06/12 01:02:52;;;;;;;9.32;8.65;;;13.40;99.90;;;;;;4996539;28;20521;-58
2023/06/12 01:05:32;;;;;;;10.05;9.23;;;13.20;99.90;;;;;;4999274;28;20027;-60
2023/06/12 01:08:28;;;;;;;10.18;9.27;;;13.10;99.90;;;;;;4992346;28;20018;-57
2023/06/12 01:10:59;;;;;;;9.90;9.18;;;13.00;99.90;;;;;;4996174;28;20018;-56
2023/06/12 01:13:26;;;;;;;10.25;9.25;;;12.90;99.90;;;;;;4993879;28;20513;-57
2023/06/12 01:15:51;;;;;;;10.18;9.38;;;12.80;99.90;;;;;;4996649;28;20042;-58
2023/06/12 01:18:20;;;;;;;10.63;9.57;;;12.80;99.90;;;;;;5003927;28;20632;-57
2023/06/12 01:20:46;;;;;;;10.93;10.00;;;12.70;99.90;;;;;;4999385;28;20121;-55
2023/06/12 01:23:18;;;;;;;10.02;9.25;;;12.70;99.90;;;;;;4998441;28;20588;-58
2023/06/12 01:26:26;;;;;;;11.50;10.10;;;12.60;99.90;;;;;;5001409;28;20030;-57
2023/06/12 01:29:36;;;;;;;10.60;9.73;;;12.60;99.90;;;;;;4997780;28;20030;-57
2023/06/12 01:32:08;;;;;;;11.20;10.38;;;12.60;99.90;;;;;;4969878;28;20371;-57
2023/06/12 01:34:57;;;;;;;10.98;9.48;;;12.60;99.90;;;;;;4997141;28;20026;-57
2023/06/12 01:37:26;;;;;;;10.50;9.60;;;12.60;99.90;;;;;;4994677;28;20073;-58
2023/06/12 01:39:57;;;;;;;10.18;9.38;;;12.60;99.90;;;;;;4998394;28;20065;-56
2023/06/12 01:42:27;;;;;;;10.45;9.55;;;12.60;99.90;;;;;;4999981;28;20121;-58
2023/06/12 01:44:54;;;;;;;11.00;10.20;;;12.60;99.90;;;;;;4997642;28;20557;-57
2023/06/12 01:47:20;;;;;;;10.80;9.98;;;12.60;99.90;;;;;;4997634;28;20585;-58
2023/06/12 01:49:46;;;;;;;10.30;9.50;;;12.50;99.90;;;;;;4998246;28;20170;-58
2023/06/12 01:52:12;;;;;;;10.02;9.13;;;12.40;99.90;;;;;;5001547;28;20482;-57
2023/06/12 01:54:38;;;;;;;10.40;9.60;;;12.40;99.90;;;;;;4998545;28;20042;-57
2023/06/12 01:57:05;;;;;;;10.68;9.85;;;12.30;99.90;;;;;;4998050;28;20125;-57
2023/06/12 01:59:32;;;;;;;11.13;10.18;;;12.20;99.90;;;;;;4998766;28;20113;-57
2023/06/12 02:01:58;;;;;;;10.45;9.55;;;12.20;99.90;;;;;;4998786;28;20517;-56
2023/06/12 02:04:24;;;;;;;11.50;10.45;;;12.10;99.90;;;;;;5000953;28;20045;-58
2023/06/12 02:06:49;;;;;;;12.23;11.32;;;12.10;99.90;;;;;;4996033;28;20034;-57
2023/06/12 02:09:15;;;;;;;10.70;9.88;;;12.10;99.90;;;;;;4993105;28;20042;-57
2023/06/12 02:11:42;;;;;;;10.70;9.90;;;12.10;99.90;;;;;;5000232;28;20030;-56
2023/06/12 02:14:07;;;;;;;17.08;10.40;;;12.10;99.90;;;;;;4998353;28;20030;-56
2023/06/12 02:16:33;;;;;;;11.95;10.75;;;12.10;99.90;;;;;;4998652;28;20127;-55
2023/06/12 02:18:58;;;;;;;12.05;11.05;;;12.10;99.90;;;;;;5000576;28;20513;-58
2023/06/12 02:21:24;;;;;;;11.85;10.90;;;12.10;99.90;;;;;;4997686;28;20034;-57
2023/06/12 02:23:50;;;;;;;13.43;12.25;;;12.10;99.90;;;;;;4996831;28;20114;-55
2023/06/12 02:26:16;;;;;;;12.32;11.43;;;12.00;99.90;;;;;;4999145;28;20049;-57
2023/06/12 02:28:42;;;;;;;11.85;10.90;;;12.00;99.90;;;;;;5001007;28;20503;-56
2023/06/12 02:31:08;;;;;;;12.07;11.18;;;11.90;99.90;;;;;;4998386;28;20728;-57
2023/06/12 02:33:37;;;;;;;11.50;10.57;;;11.90;99.90;;;;;;5001563;28;20027;-57
2023/06/12 02:36:03;;;;;;;11.30;10.40;;;11.80;99.90;;;;;;4998115;28;20045;-57
2023/06/12 02:38:28;;;;;;;11.05;10.15;;;11.70;99.90;;;;;;4998527;28;20030;-56
2023/06/12 02:40:54;;;;;;;11.50;10.60;;;11.70;99.90;;;;;;4998829;28;20045;-56
2023/06/12 02:43:20;;;;;;;10.60;9.80;;;11.60;99.90;;;;;;4998336;28;20901;-57
2023/06/12 02:45:45;;;;;;;11.38;10.48;;;11.50;99.90;;;;;;4996328;28;20628;-57
2023/06/12 02:48:11;;;;;;;10.85;9.80;;;11.50;99.90;;;;;;4997707;28;20037;-57
2023/06/12 02:50:36;;;;;;;11.13;10.23;;;11.50;99.90;;;;;;4997066;28;20042;-56
2023/06/12 02:53:02;;;;;;;11.52;10.63;;;11.50;99.90;;;;;;4996711;28;20037;-57
2023/06/12 02:55:28;;;;;;;12.20;11.13;;;11.50;99.90;;;;;;5001222;28;20049;-57
2023/06/12 02:57:53;;;;;;;12.02;11.07;;;11.50;99.90;;;;;;4997030;28;20026;-57
2023/06/12 03:00:19;;;;;;;12.23;11.23;;;11.50;99.90;;;;;;5001317;28;20426;-56
2023/06/12 03:02:47;;;;;;;10.68;9.88;;;11.50;99.90;;;;;;4995583;28;20042;-57
2023/06/12 03:05:14;;;;;;;11.88;10.98;;;11.50;99.90;;;;;;4996984;28;20030;-56
2023/06/12 03:07:41;;;;;;;12.13;11.23;;;11.50;99.90;;;;;;4998931;28;20132;-57
2023/06/12 03:10:08;;;;;;;12.43;11.43;;;11.50;99.90;;;;;;4995978;28;20495;-57
2023/06/12 03:12:34;;;;;;;12.38;11.43;;;11.50;99.90;;;;;;4999482;28;20080;-56
2023/06/12 03:15:00;;;;;;;11.68;10.68;;;11.50;99.90;;;;;;4999100;28;20364;-57
2023/06/12 03:17:25;;;;;;;12.45;11.45;;;11.40;99.90;;;;;;4995387;28;20761;-57
2023/06/12 03:19:51;;;;;;;12.35;11.45;;;11.40;99.90;;;;;;4996885;28;20052;-58
2023/06/12 03:22:17;;;;;;;13.15;12.15;;;11.40;99.90;;;;;;4997851;28;20027;-56
2023/06/12 03:24:43;;;;;;;11.85;10.98;;;11.30;99.90;;;;;;4998162;28;20041;-57
2023/06/12 03:27:09;;;;;;;12.20;11.20;;;11.30;99.90;;;;;;4995913;28;20035;-54
2023/06/12 03:29:35;;;;;;;12.10;11.05;;;11.30;99.90;;;;;;4997027;28;20033;-58
2023/06/12 03:32:01;;;;;;;11.98;10.88;;;11.30;99.90;;;;;;4996295;28;20034;-57
2023/06/12 03:34:26;;;;;;;11.25;10.32;;;11.30;99.90;;;;;;4996138;28;20026;-57
2023/06/12 03:36:52;;;;;;;12.60;11.52;;;11.30;99.90;;;;;;4996130;28;20046;-57
2023/06/12 03:39:18;;;;;;;12.88;11.77;;;11.30;99.90;;;;;;4997405;28;20036;-57
2023/06/12 03:41:57;;;;;;;11.75;10.75;;;11.20;99.90;;;;;;4994998;28;20030;-57
2023/06/12 03:44:23;;;;;;;12.75;11.32;;;11.20;99.90;;;;;;4997077;28;20867;-57
2023/06/12 03:46:48;;;;;;;11.88;10.98;;;11.20;99.90;;;;;;4995661;28;20045;-56
2023/06/12 03:49:14;;;;;;;12.30;11.30;;;11.20;99.90;;;;;;4999361;28;20121;-56
2023/06/12 03:51:41;;;;;;;12.40;11.30;;;11.20;99.90;;;;;;4994104;28;20851;-57
2023/06/12 03:54:07;;;;;;;11.88;10.90;;;11.20;99.90;;;;;;4994744;28;20022;-57
2023/06/12 03:56:33;;;;;;;12.65;11.43;;;11.20;99.90;;;;;;4996562;28;20034;-56
2023/06/12 03:59:00;;;;;;;12.98;11.88;;;11.20;99.90;;;;;;4998827;28;20021;-57
2023/06/12 04:01:26;;;;;;;11.63;10.63;;;11.20;99.90;;;;;;4997067;28;20026;-57
2023/06/12 04:03:53;;;;;;;12.25;11.15;;;11.20;99.90;;;;;;4996168;28;20815;-56
2023/06/12 04:06:21;;;;;;;12.52;11.52;;;11.20;99.90;;;;;;4994639;28;20137;-57
2023/06/12 04:08:47;;;;;;;12.80;11.77;;;11.20;99.90;;;;;;4998212;28;20034;-57
2023/06/12 04:11:16;;;;;;;12.25;11.30;;;11.20;99.90;;;;;;5001277;28;20029;-57
2023/06/12 04:13:42;;;;;;;12.13;11.02;;;11.30;99.90;;;;;;4996199;28;20029;-55
2023/06/12 04:16:08;;;;;;;13.75;12.65;;;11.30;99.90;;;;;;4998287;28;20378;-57
2023/06/12 04:18:37;;;;;;;13.85;12.35;;;11.30;99.90;;;;;;4996258;28;20071;-58
2023/06/12 04:21:07;;;;;;;13.15;12.07;;;11.30;99.90;;;;;;4995170;28;20050;-57
2023/06/12 04:23:33;;;;;;;12.32;11.32;;;11.40;99.90;;;;;;4996633;28;20409;-57
2023/06/12 04:26:04;;;;;;;13.38;12.07;;;11.40;99.90;;;;;;4994508;28;20046;-57
2023/06/12 04:28:33;;;;;;;13.27;12.27;;;11.40;99.90;;;;;;4997943;28;20136;-57
2023/06/12 04:31:00;;;;;;;13.48;12.27;;;11.50;99.90;;;;;;4999147;28;20070;-60
2023/06/12 04:33:30;;;;;;;13.85;12.75;;;11.50;99.90;;;;;;4997672;28;20597;-60
2023/06/12 04:35:57;;;;;;;12.95;11.95;;;11.60;99.90;;;;;;4998593;28;20392;-59
2023/06/12 04:38:23;;;;;;;14.18;12.98;;;11.60;99.90;;;;;;4994288;28;20026;-60
2023/06/12 04:40:51;;;;;;;13.65;12.45;;;11.60;99.90;;;;;;4994187;28;20029;-60
2023/06/12 04:43:20;;;;;;;14.68;13.57;;;11.70;99.90;;;;;;4993598;28;20363;-60
2023/06/12 04:45:46;;;;;;;12.63;11.63;;;11.70;99.90;;;;;;4999894;28;20076;-60
2023/06/12 04:48:12;;;;;;;14.32;12.95;;;11.70;99.90;;;;;;4994120;28;20038;-60
2023/06/12 04:50:38;;;;;;;14.95;13.43;;;11.70;99.90;;;;;;5004883;28;20038;-61
2023/06/12 04:53:03;;;;;;;12.85;11.85;;;11.80;99.90;;;;;;5007548;28;20045;-59
2023/06/12 04:55:30;;;;;;;13.38;12.38;;;11.90;99.90;;;;;;5003545;28;20100;-59
2023/06/12 04:57:59;;;;;;;14.95;13.75;;;12.00;99.90;;;;;;5002263;28;20061;-60
2023/06/12 05:00:25;;;;;;;14.57;13.38;;;12.10;99.90;;;;;;5004233;28;20030;-59
2023/06/12 05:02:52;;;;;;;14.98;13.65;;;12.20;99.90;;;;;;5007315;28;20135;-58
2023/06/12 05:05:19;;;;;;;13.52;12.43;;;12.30;99.90;;;;;;5001540;28;20651;-60
2023/06/12 05:07:45;;;;;;;14.50;13.35;;;12.50;99.90;;;;;;5003087;28;20030;-60
2023/06/12 05:10:14;;;;;;;14.98;13.88;;;12.60;99.90;;;;;;5001735;28;20499;-61
2023/06/12 05:12:40;;;;;;;23.67;14.15;;;12.80;99.90;;;;;;5002975;28;20026;-59
2023/06/12 05:15:07;;;;;;;15.52;14.20;;;12.90;99.90;;;;;;5002278;28;20053;-60
2023/06/12 05:17:33;;;;;;;16.58;14.60;;;13.00;99.90;;;;;;5001011;28;20022;-59
2023/06/12 05:19:58;;;;;;;15.02;13.52;;;13.20;99.90;;;;;;5002599;28;20033;-60
2023/06/12 05:22:25;;;;;;;14.82;13.73;;;13.30;99.90;;;;;;5001606;28;20121;-60
2023/06/12 05:24:50;;;;;;;15.15;13.52;;;13.50;99.90;;;;;;5001625;28;20033;-58
2023/06/12 05:27:16;;;;;;;13.77;12.63;;;13.60;99.90;;;;;;5002547;28;20084;-58
2023/06/12 05:29:42;;;;;;;13.70;12.48;;;13.70;99.90;;;;;;5000653;28;20050;-58
2023/06/12 05:32:08;;;;;;;13.63;12.43;;;13.90;99.90;;;;;;4997970;28;20022;-58
2023/06/12 05:34:34;;;;;;;12.77;11.88;;;14.00;99.90;;;;;;5000327;28;20923;-57
2023/06/12 05:36:59;;;;;;;12.65;11.45;;;14.20;99.90;;;;;;5000442;28;20030;-57
2023/06/12 05:39:25;;;;;;;11.52;10.57;;;14.30;99.90;;;;;;5000406;28;20030;-58
2023/06/12 05:41:51;;;;;;;13.40;10.07;;;14.50;99.90;;;;;;5001518;28;20050;-57
2023/06/12 05:44:16;;;;;;;9.80;8.98;;;14.60;99.90;;;;;;4996936;28;20076;-58
2023/06/12 05:46:43;;;;;;;11.10;9.27;;;14.70;99.90;;;;;;5000325;28;20028;-58
2023/06/12 05:49:08;;;;;;;10.60;9.77;;;14.80;99.90;;;;;;5002399;28;20029;-58
2023/06/12 05:51:35;;;;;;;10.98;9.88;;;15.00;99.90;;;;;;5005878;28;20601;-59
2023/06/12 05:54:01;;;;;;;9.52;8.70;;;15.10;99.90;;;;;;5002216;28;20033;-57
2023/06/12 05:56:27;;;;;;;8.18;7.35;;;15.30;99.90;;;;;;5003288;28;20029;-57
2023/06/12 05:58:52;;;;;;;9.27;8.48;;;15.40;99.90;;;;;;5002513;28;20412;-59
2023/06/12 06:01:21;;;;;;;11.13;8.07;;;15.50;99.90;;;;;;4996671;28;20026;-58
2023/06/12 06:03:48;;;;;;;7.95;7.25;;;15.60;99.90;;;;;;4997977;28;20628;-57
2023/06/12 06:06:15;;;;;;;8.52;7.82;;;15.70;99.90;;;;;;5000841;28;20117;-57
2023/06/12 06:08:41;;;;;;;9.75;8.15;;;15.70;99.90;;;;;;4998147;28;20018;-56
2023/06/12 06:11:07;;;;;;;10.88;8.52;;;15.80;99.90;;;;;;4999619;28;20038;-57
2023/06/12 06:13:33;;;;;;;8.70;7.03;;;16.00;99.90;;;;;;4999083;28;20394;-57
2023/06/12 06:15:59;;;;;;;7.70;7.10;;;16.10;99.90;;;;;;4999545;28;20034;-58
2023/06/12 06:18:24;;;;;;;9.90;7.70;;;16.20;99.90;;;;;;4998005;28;20023;-58
2023/06/12 06:20:52;;;;;;;6.93;6.22;;;16.30;99.90;;;;;;4998747;28;20030;-56
2023/06/12 06:23:18;;;;;;;7.80;7.03;;;16.40;99.90;;;;;;4999814;28;20096;-58
2023/06/12 06:25:43;;;;;;;7.22;6.63;;;16.50;99.90;;;;;;4995251;28;20049;-58
2023/06/12 06:28:09;;;;;;;7.35;6.20;;;16.60;99.90;;;;;;4998628;28;20042;-56
2023/06/12 06:30:35;;;;;;;7.18;6.57;;;16.80;99.90;;;;;;4994388;28;20109;-58
2023/06/12 06:33:01;;;;;;;7.03;6.40;;;16.90;99.90;;;;;;5001214;28;20041;-57
2023/06/12 06:35:27;;;;;;;6.78;6.20;;;17.00;99.90;;;;;;4998531;28;20022;-57
2023/06/12 06:37:52;;;;;;;6.78;6.20;;;17.10;99.90;;;;;;5003920;28;20030;-58
2023/06/12 06:40:18;;;;;;;11.02;5.25;;;17.20;99.90;;;;;;5001183;28;20015;-57
2023/06/12 06:42:43;;;;;;;8.07;6.25;;;17.40;99.90;;;;;;4995894;28;20054;-56
2023/06/12 06:45:09;;;;;;;5.68;5.18;;;17.50;99.90;;;;;;4996860;28;20031;-61
2023/06/12 06:47:35;;;;;;;5.22;4.47;;;17.70;99.90;;;;;;4997108;28;20119;-58
2023/06/12 06:50:01;;;;;;;5.25;4.75;;;17.90;99.90;;;;;;4998086;28;20173;-58
2023/06/12 06:52:27;;;;;;;5.00;4.57;;;18.10;99.90;;;;;;4997900;28;20023;-57
2023/06/12 06:54:53;;;;;;;5.43;4.85;;;18.30;99.90;;;;;;4993029;28;20056;-58
2023/06/12 06:57:19;;;;;;;7.25;5.00;;;18.50;99.90;;;;;;4996277;28;20052;-57
2023/06/12 06:59:45;;;;;;;5.93;5.32;;;18.60;99.90;;;;;;4998149;28;20038;-58
2023/06/12 07:02:10;;;;;;;5.28;4.78;;;18.80;99.90;;;;;;4996198;28;20034;-58
2023/06/12 07:04:37;;;;;;;5.47;4.65;;;18.90;99.90;;;;;;4997519;28;20026;-58
2023/06/12 07:07:03;;;;;;;6.10;4.78;;;19.00;99.90;;;;;;4997230;28;20044;-58
2023/06/12 07:09:29;;;;;;;12.38;4.68;;;19.20;99.90;;;;;;4997665;28;20026;-57
2023/06/12 07:11:55;;;;;;;7.85;5.22;;;19.30;99.90;;;;;;4998992;28;20402;-57
2023/06/12 07:14:20;;;;;;;12.43;5.05;;;19.50;99.90;;;;;;4997896;28;20037;-57
2023/06/12 07:16:46;;;;;;;5.55;5.05;;;19.50;99.90;;;;;;4995599;28;20030;-59
2023/06/12 07:19:12;;;;;;;7.60;4.93;;;19.70;99.90;;;;;;4996371;28;20060;-58
2023/06/12 07:21:38;;;;;;;11.32;4.68;;;19.80;99.20;;;;;;4999021;28;20495;-55
2023/06/12 07:24:04;;;;;;;13.27;5.25;;;19.90;99.90;;;;;;4998172;28;20054;-59
2023/06/12 07:26:30;;;;;;;9.15;5.25;;;20.00;97.60;;;;;;4995836;28;20080;-58
2023/06/12 07:28:56;;;;;;;6.10;4.78;;;20.10;98.60;;;;;;5000266;28;20042;-58
2023/06/12 07:31:22;;;;;;;5.03;4.50;;;20.10;98.60;;;;;;4996214;28;20704;-58
2023/06/12 07:33:47;;;;;;;7.18;4.57;;;20.20;95.40;;;;;;4997600;28;20121;-57
2023/06/12 07:36:14;;;;;;;10.85;5.10;;;20.30;95.70;;;;;;4998263;28;20409;-58
2023/06/12 07:38:41;;;;;;;7.80;5.05;;;20.40;94.50;;;;;;4997443;28;20390;-58
2023/06/12 07:41:07;;;;;;;6.32;4.85;;;20.50;93.30;;;;;;4999715;28;20026;-58
2023/06/12 07:43:34;;;;;;;7.90;4.75;;;20.60;92.90;;;;;;4993280;28;20068;-57
2023/06/12 07:46:03;;;;;;;4.90;4.30;;;20.70;93.50;;;;;;4993595;28;20034;-57
2023/06/12 07:48:29;;;;;;;11.15;4.65;;;20.80;91.50;;;;;;4993721;28;20030;-58
2023/06/12 07:50:55;;;;;;;5.13;4.68;;;20.90;91.40;;;;;;4997502;28;20049;-58
2023/06/12 07:53:21;;;;;;;5.47;4.78;;;21.00;92.50;;;;;;4999663;28;20045;-58
2023/06/12 07:55:49;;;;;;;4.55;4.20;;;21.00;92.00;;;;;;4996647;28;20030;-58
2023/06/12 07:58:15;;;;;;;5.13;4.72;;;21.10;91.40;;;;;;5001968;28;20052;-57
2023/06/12 08:00:40;;;;;;;5.07;4.55;;;21.20;90.40;;;;;;4997169;28;20581;-58
2023/06/12 08:03:08;;;;;;;17.45;4.75;;;21.30;88.00;;;;;;4993111;28;20023;-58
2023/06/12 08:05:34;;;;;;;7.47;5.53;;;21.30;88.10;;;;;;4996265;28;20038;-57
2023/06/12 08:08:01;;;;;;;8.30;4.53;;;21.40;85.60;;;;;;4999427;28;20030;-58
2023/06/12 08:10:27;;;;;;;44.20;14.30;;;21.40;88.80;;;;;;4998446;28;20023;-58
2023/06/12 08:12:53;;;;;;;7.00;5.43;;;21.50;83.30;;;;;;4996491;28;20041;-58
2023/06/12 08:15:20;;;;;;;7.68;5.00;;;21.50;84.10;;;;;;4998561;28;20043;-58
2023/06/12 08:17:46;;;;;;;5.55;4.95;;;21.70;85.40;;;;;;4996989;28;20038;-57
2023/06/12 08:20:13;;;;;;;5.05;4.53;;;21.80;88.70;;;;;;4995995;28;20034;-57
2023/06/12 08:22:39;;;;;;;5.30;4.80;;;22.10;86.10;;;;;;4998172;28;20037;-57
2023/06/12 08:25:09;;;;;;;5.90;4.40;;;22.30;87.60;;;;;;4997999;28;20505;-59
2023/06/12 08:27:35;;;;;;;5.15;4.03;;;22.50;82.00;;;;;;4995083;28;20104;-59
2023/06/12 08:30:01;;;;;;;14.25;4.25;;;22.60;76.90;;;;;;4997689;28;20073;-58
2023/06/12 08:32:27;;;;;;;5.85;3.80;;;22.70;78.30;;;;;;4996344;28;20506;-57
2023/06/12 08:34:53;;;;;;;4.85;4.45;;;22.70;75.80;;;;;;4996782;28;20037;-57
2023/06/12 08:37:20;;;;;;;7.20;4.13;;;22.70;72.70;;;;;;4996665;28;20014;-58
2023/06/12 08:39:46;;;;;;;4.53;4.03;;;22.70;69.70;;;;;;4996733;28;20034;-57
2023/06/12 08:42:16;;;;;;;4.47;4.07;;;22.80;69.70;;;;;;4994559;28;20047;-58
2023/06/12 08:44:44;;;;;;;4.72;4.05;;;22.80;70.20;;;;;;4996252;28;20053;-58
2023/06/12 08:47:11;;;;;;;4.25;3.85;;;22.90;69.40;;;;;;4996556;28;20605;-57
2023/06/12 08:49:38;;;;;;;5.63;3.67;;;23.00;68.60;;;;;;4998424;28;20042;-57
2023/06/12 08:52:06;;;;;;;4.47;3.72;;;23.00;69.20;;;;;;4997657;28;20587;-58
2023/06/12 08:54:36;;;;;;;6.18;4.25;;;23.00;66.70;;;;;;4996091;28;20034;-59
2023/06/12 08:57:04;;;;;;;5.60;4.30;;;23.00;67.60;;;;;;4994445;28;20041;-59
2023/06/12 08:59:29;;;;;;;4.57;4.18;;;23.00;68.20;;;;;;4996252;28;20034;-57
2023/06/12 09:01:56;;;;;;;5.00;3.90;;;23.00;68.10;;;;;;4997147;28;20504;-57
2023/06/12 09:04:31;;;;;;;4.43;4.03;;;22.90;67.80;;;;;;4999469;28;20132;-58
2023/06/12 09:07:03;;;;;;;4.28;3.88;;;22.90;63.00;;;;;;4997578;28;20034;-58
2023/06/12 09:09:39;;;;;;;3.38;3.08;;;22.80;64.50;;;;;;4996337;28;20030;-57
2023/06/12 09:12:08;;;;;;;5.07;3.90;;;22.80;66.30;;;;;;4995948;28;20031;-59
2023/06/12 09:14:35;;;;;;;5.75;4.00;;;22.80;67.20;;;;;;4998018;28;20027;-58
2023/06/12 09:17:04;;;;;;;25.40;5.15;;;22.90;65.70;;;;;;4997887;28;20053;-59
2023/06/12 09:19:39;;;;;;;5.35;4.22;;;23.10;69.20;;;;;;4996537;28;20482;-58
2023/06/12 09:22:05;;;;;;;5.22;3.80;;;23.20;72.00;;;;;;4992570;28;20033;-61
2023/06/12 09:24:31;;;;;;;5.45;3.83;;;23.30;67.30;;;;;;4992589;28;20038;-58
2023/06/12 09:26:57;;;;;;;11.23;3.97;;;23.30;64.70;;;;;;4993567;28;20027;-58
2023/06/12 09:29:33;;;;;;;5.00;4.03;;;23.40;64.60;;;;;;4996136;28;20576;-57
2023/06/12 09:32:00;;;;;;;4.05;3.53;;;23.50;63.60;;;;;;4996919;28;20034;-58
2023/06/12 09:34:26;;;;;;;5.25;3.50;;;23.60;63.90;;;;;;4996438;28;20106;-57
2023/06/12 09:36:52;;;;;;;3.67;3.38;;;23.80;62.60;;;;;;4998889;28;20544;-58
2023/06/12 09:39:26;;;;;;;6.03;3.78;;;23.90;60.30;;;;;;4999760;28;20490;-59
2023/06/12 09:41:52;;;;;;;6.50;3.72;;;24.10;61.40;;;;;;4996533;28;20541;-58
2023/06/12 09:44:27;;;;;;;4.68;3.53;;;24.10;62.00;;;;;;5000604;28;20038;-59
2023/06/12 09:47:01;;;;;;;4.15;3.63;;;24.10;60.60;;;;;;4997913;28;20049;-57
2023/06/12 09:49:27;;;;;;;6.95;3.65;;;24.20;62.30;;;;;;5000494;28;20066;-59
2023/06/12 09:51:54;;;;;;;3.45;3.17;;;24.30;62.70;;;;;;5002590;28;20076;-59
2023/06/12 09:54:21;;;;;;;3.58;3.22;;;24.40;58.90;;;;;;5001642;28;20138;-59
2023/06/12 09:56:51;;;;;;;3.05;2.85;;;24.50;59.70;;;;;;5006341;28;20038;-55
2023/06/12 09:59:18;;;;;;;4.63;3.10;;;24.60;57.70;;;;;;4999470;28;20027;-59
2023/06/12 10:02:03;;;;;;;5.35;3.67;;;24.70;56.60;;;;;;4998962;28;20669;-59
2023/06/12 10:04:42;;;;;;;5.30;3.75;;;24.60;57.90;;;;;;4996822;28;20046;-58
2023/06/12 10:07:21;;;;;;;3.95;3.28;;;24.80;57.90;;;;;;4999209;28;20502;-58
2023/06/12 10:09:47;;;;;;;5.10;3.03;;;24.90;58.00;;;;;;4996890;28;20049;-58
2023/06/12 10:12:14;;;;;;;3.72;3.35;;;25.00;56.00;;;;;;5000931;28;20030;-59
2023/06/12 10:14:40;;;;;;;3.50;3.20;;;25.10;58.10;;;;;;4998000;28;20034;-60
2023/06/12 10:17:08;;;;;;;4.30;3.00;;;25.30;55.90;;;;;;4999349;28;20077;-59
2023/06/12 10:19:37;;;;;;;4.03;3.10;;;25.40;55.40;;;;;;4999966;28;20036;-58
2023/06/12 10:22:06;;;;;;;4.32;3.92;;;25.40;56.60;;;;;;4997005;28;20034;-58
2023/06/12 10:24:33;;;;;;;4.03;3.53;;;25.70;55.90;;;;;;5000582;28;20093;-57
2023/06/12 10:26:59;;;;;;;3.20;2.90;;;25.80;53.50;;;;;;4998665;28;20570;-58
2023/06/12 10:29:36;;;;;;;3.67;3.38;;;25.70;57.10;;;;;;4998239;28;20088;-58
2023/06/12 10:32:07;;;;;;;13.25;3.67;;;25.70;56.80;;;;;;4997271;28;20030;-58
2023/06/12 10:34:34;;;;;;;;;;;25.60;56.90;;;;;;4999774;28;20045;-57
2023/06/12 10:37:33;;;;;;;3.35;2.80;;;25.50;54.70;;;;;;4998405;28;19910;-57
2023/06/12 10:40:07;;;;;;;4.90;3.65;;;25.50;53.60;;;;;;4996994;28;20036;-58
2023/06/12 10:42:42;;;;;;;4.00;3.00;;;25.40;56.80;;;;;;4996332;28;20034;-56
2023/06/12 10:45:24;;;;;;;3.25;2.95;;;25.40;52.60;;;;;;4996874;28;20026;-57
2023/06/12 10:48:02;;;;;;;3.60;3.30;;;25.40;53.60;;;;;;5001270;28;20038;-58
2023/06/12 10:50:49;;;;;;;4.38;3.63;;;25.20;53.20;;;;;;4998728;28;20133;-58
2023/06/12 10:53:19;;;;;;;5.78;3.45;;;24.90;56.80;;;;;;4999864;28;20029;-58
2023/06/12 10:55:44;;;;;;;4.90;3.47;;;24.60;56.10;;;;;;4994727;28;20364;-58
2023/06/12 10:58:18;;;;;;;4.55;4.25;;;24.60;56.30;;;;;;5000301;28;20049;-59
2023/06/12 11:00:46;;;;;;;4.13;3.53;;;24.50;55.00;;;;;;4998916;28;20026;-58
2023/06/12 11:03:21;;;;;;;4.20;3.40;;;24.50;58.40;;;;;;4996366;28;20025;-58
2023/06/12 11:05:54;;;;;;;5.93;4.32;;;24.50;56.90;;;;;;4997121;28;20033;-57
2023/06/12 11:08:20;;;;;;;11.40;9.80;;;24.70;57.10;;;;;;4995231;28;20034;-58
2023/06/12 11:10:46;;;;;;;5.43;3.88;;;24.80;56.90;;;;;;4998261;28;20014;-58
2023/06/12 11:13:12;;;;;;;4.07;3.67;;;25.00;54.60;;;;;;5000977;28;20022;-59
2023/06/12 11:15:44;;;;;;;4.53;3.65;;;25.00;55.70;;;;;;4993679;28;20022;-59
2023/06/12 11:18:12;;;;;;;4.95;3.45;;;25.20;53.90;;;;;;4994123;28;20381;-57
2023/06/12 11:20:38;;;;;;;3.78;3.47;;;25.30;53.20;;;;;;4998852;28;20038;-57
2023/06/12 11:23:05;;;;;;;6.93;4.03;;;25.40;54.70;;;;;;4998010;28;20037;-57
2023/06/12 11:25:35;;;;;;;3.90;3.60;;;25.50;55.40;;;;;;4997073;28;20018;-58
2023/06/12 11:28:02;;;;;;;6.18;4.10;;;25.60;54.80;;;;;;4997668;28;20022;-58
2023/06/12 11:30:28;;;;;;;4.68;3.38;;;25.70;53.40;;;;;;4998383;28;20560;-59
2023/06/12 11:32:53;;;;;;;8.68;3.97;;;25.70;53.00;;;;;;4997029;28;20033;-57
2023/06/12 11:35:19;;;;;;;3.92;3.55;;;25.80;54.60;;;;;;4999297;28;20057;-58
2023/06/12 11:37:45;;;;;;;7.03;3.35;;;25.90;54.40;;;;;;4997385;28;20015;-58
2023/06/12 11:40:12;;;;;;;5.53;3.75;;;26.00;52.70;;;;;;4993941;28;20081;-58
2023/06/12 11:42:42;;;;;;;8.25;4.90;;;26.10;50.30;;;;;;4993766;28;20037;-58
2023/06/12 11:45:13;;;;;;;9.00;4.90;;;26.10;52.50;;;;;;5001791;28;20646;-57
2023/06/12 11:47:43;;;;;;;5.07;3.75;;;26.10;53.30;;;;;;4996832;28;20334;-58
2023/06/12 11:50:15;;;;;;;5.63;3.80;;;26.00;52.00;;;;;;4997219;28;20499;-59
2023/06/12 11:52:42;;;;;;;4.25;3.83;;;26.10;51.90;;;;;;4996669;28;20160;-58
2023/06/12 11:55:10;;;;;;;4.72;3.72;;;26.20;52.10;;;;;;4992620;28;20050;-58
2023/06/12 11:57:36;;;;;;;3.95;3.58;;;26.40;52.70;;;;;;4997963;28;20029;-56
2023/06/12 12:00:13;;;;;;;5.72;3.92;;;26.70;53.50;;;;;;4995520;28;20109;-58
2023/06/12 12:02:49;;;;;;;5.10;3.42;;;26.90;51.70;;;;;;4995487;28;20501;-57
2023/06/12 12:05:18;;;;;;;4.70;3.75;;;27.10;52.70;;;;;;4996054;28;20030;-58
2023/06/12 12:07:48;;;;;;;3.60;3.30;;;27.20;48.40;;;;;;4997322;28;20033;-58
2023/06/12 12:10:14;;;;;;;4.15;3.55;;;27.30;51.20;;;;;;4996433;28;20046;-59
2023/06/12 12:12:51;;;;;;;4.05;3.55;;;27.20;48.90;;;;;;4994053;28;20045;-58
2023/06/12 12:15:20;;;;;;;5.70;4.05;;;27.40;51.20;;;;;;4998830;28;20607;-58
2023/06/12 12:17:46;;;;;;;3.53;3.22;;;27.40;48.60;;;;;;4995033;28;20033;-58
2023/06/12 12:20:18;;;;;;;4.55;3.17;;;27.30;48.60;;;;;;4996591;28;20084;-58
2023/06/12 12:22:47;;;;;;;3.97;3.63;;;27.30;53.00;;;;;;4995558;28;20674;-58
2023/06/12 12:25:21;;;;;;;4.32;3.92;;;27.40;50.10;;;;;;4998460;28;20129;-59
2023/06/12 12:27:49;;;;;;;3.67;3.38;;;27.60;51.60;;;;;;4997725;28;20162;-59
2023/06/12 12:30:15;;;;;;;4.38;3.75;;;27.50;49.80;;;;;;4993828;28;20030;-59
2023/06/12 12:32:49;;;;;;;3.90;3.53;;;27.30;46.00;;;;;;4995937;28;20498;-59
2023/06/12 12:35:16;;;;;;;3.75;3.45;;;27.00;46.80;;;;;;4995474;28;20088;-58
2023/06/12 12:37:45;;;;;;;4.35;3.47;;;27.00;48.20;;;;;;4996900;28;20029;-57
2023/06/12 12:40:13;;;;;;;3.38;3.08;;;27.10;51.00;;;;;;4996580;28;20498;-59
2023/06/12 12:42:40;;;;;;;6.82;3.65;;;27.20;48.20;;;;;;4994977;28;20056;-58
2023/06/12 12:45:08;;;;;;;3.83;3.03;;;27.30;48.90;;;;;;4997196;28;20025;-59